sensor_id;sensor_type;location;lat;lon;timestamp;P1;durP1;ratioP1;P2;durP2;ratioP2
16624;SDS011;8426;48.496;9.098;2023-05-07T00:02:21;3.30;;;1.88;;
16624;SDS011;8426;48.496;9.098;2023-05-07T00:07:26;3.00;;;1.75;;
16624;SDS011;8426;48.496;9.098;2023-05-07T00:12:30;4.60;;;1.52;;
16624;SDS011;8426;48.496;9.098;2023-05-07T00:17:36;4.03;;;1.92;;
16624;SDS011;8426;48.496;9.098;2023-05-07T00:22:41;4.00;;;1.67;;
16624;SDS011;8426;48.496;9.098;2023-05-07T00:27:44;5.93;;;1.67;;
16624;SDS011;8426;48.496;9.098;2023-05-07T00:32:48;4.80;;;1.92;;
16624;SDS011;8426;48.496;9.098;2023-05-07T00:37:54;3.03;;;2.20;;
16624;SDS011;8426;48.496;9.098;2023-05-07T00:42:58;3.60;;;2.58;;
16624;SDS011;8426;48.496;9.098;2023-05-07T00:48:01;6.40;;;2.67;;
16624;SDS011;8426;48.496;9.098;2023-05-07T00:53:07;5.65;;;2.78;;
16624;SDS011;8426;48.496;9.098;2023-05-07T00:58:11;5.18;;;2.60;;
16624;SDS011;8426;48.496;9.098;2023-05-07T01:03:15;8.27;;;2.78;;
16624;SDS011;8426;48.496;9.098;2023-05-07T01:08:20;4.97;;;2.70;;
16624;SDS011;8426;48.496;9.098;2023-05-07T01:13:27;7.70;;;2.35;;
16624;SDS011;8426;48.496;9.098;2023-05-07T01:18:32;4.57;;;2.20;;
16624;SDS011;8426;48.496;9.098;2023-05-07T01:23:37;5.30;;;2.65;;
16624;SDS011;8426;48.496;9.098;2023-05-07T01:28:42;3.97;;;2.15;;
16624;SDS011;8426;48.496;9.098;2023-05-07T01:33:45;4.05;;;2.88;;
16624;SDS011;8426;48.496;9.098;2023-05-07T01:38:52;3.67;;;2.47;;
16624;SDS011;8426;48.496;9.098;2023-05-07T01:43:56;5.30;;;3.17;;
16624;SDS011;8426;48.496;9.098;2023-05-07T01:49:02;3.67;;;2.60;;
16624;SDS011;8426;48.496;9.098;2023-05-07T01:54:07;4.43;;;2.58;;
16624;SDS011;8426;48.496;9.098;2023-05-07T01:59:11;4.78;;;2.80;;
16624;SDS011;8426;48.496;9.098;2023-05-07T02:04:14;4.13;;;2.40;;
16624;SDS011;8426;48.496;9.098;2023-05-07T02:09:22;3.03;;;2.30;;
16624;SDS011;8426;48.496;9.098;2023-05-07T02:14:26;4.47;;;2.90;;
16624;SDS011;8426;48.496;9.098;2023-05-07T02:19:29;4.00;;;2.88;;
16624;SDS011;8426;48.496;9.098;2023-05-07T02:24:34;4.53;;;2.70;;
16624;SDS011;8426;48.496;9.098;2023-05-07T02:29:38;3.47;;;2.72;;
16624;SDS011;8426;48.496;9.098;2023-05-07T02:34:41;7.93;;;2.63;;
16624;SDS011;8426;48.496;9.098;2023-05-07T02:39:46;10.13;;;3.22;;
16624;SDS011;8426;48.496;9.098;2023-05-07T02:44:49;6.15;;;3.30;;
16624;SDS011;8426;48.496;9.098;2023-05-07T02:49:55;7.22;;;3.00;;
16624;SDS011;8426;48.496;9.098;2023-05-07T02:55:00;4.20;;;2.67;;
16624;SDS011;8426;48.496;9.098;2023-05-07T03:00:10;5.07;;;2.88;;
16624;SDS011;8426;48.496;9.098;2023-05-07T03:05:15;7.03;;;3.22;;
16624;SDS011;8426;48.496;9.098;2023-05-07T03:10:20;4.60;;;3.17;;
16624;SDS011;8426;48.496;9.098;2023-05-07T03:15:24;5.28;;;3.08;;
16624;SDS011;8426;48.496;9.098;2023-05-07T03:20:27;4.72;;;3.20;;
16624;SDS011;8426;48.496;9.098;2023-05-07T03:25:32;4.60;;;3.30;;
16624;SDS011;8426;48.496;9.098;2023-05-07T03:30:36;5.63;;;3.22;;
16624;SDS011;8426;48.496;9.098;2023-05-07T03:35:40;4.30;;;2.70;;
16624;SDS011;8426;48.496;9.098;2023-05-07T03:40:45;6.57;;;3.13;;
16624;SDS011;8426;48.496;9.098;2023-05-07T03:45:48;4.97;;;2.75;;
16624;SDS011;8426;48.496;9.098;2023-05-07T03:50:51;4.40;;;2.83;;
16624;SDS011;8426;48.496;9.098;2023-05-07T03:55:56;6.32;;;3.47;;
16624;SDS011;8426;48.496;9.098;2023-05-07T04:00:59;5.95;;;3.53;;
16624;SDS011;8426;48.496;9.098;2023-05-07T04:06:03;4.35;;;3.10;;
16624;SDS011;8426;48.496;9.098;2023-05-07T04:11:07;6.60;;;3.17;;
16624;SDS011;8426;48.496;9.098;2023-05-07T04:16:11;4.60;;;3.20;;
16624;SDS011;8426;48.496;9.098;2023-05-07T04:21:15;7.38;;;3.40;;
16624;SDS011;8426;48.496;9.098;2023-05-07T04:26:20;8.02;;;3.08;;
16624;SDS011;8426;48.496;9.098;2023-05-07T04:31:24;5.85;;;3.38;;
16624;SDS011;8426;48.496;9.098;2023-05-07T04:36:28;5.10;;;2.95;;
16624;SDS011;8426;48.496;9.098;2023-05-07T04:41:32;4.07;;;2.95;;
16624;SDS011;8426;48.496;9.098;2023-05-07T04:46:37;5.82;;;3.40;;
16624;SDS011;8426;48.496;9.098;2023-05-07T04:51:40;4.88;;;3.42;;
16624;SDS011;8426;48.496;9.098;2023-05-07T04:56:46;3.85;;;2.95;;
16624;SDS011;8426;48.496;9.098;2023-05-07T05:01:50;5.90;;;3.15;;
16624;SDS011;8426;48.496;9.098;2023-05-07T05:06:53;5.03;;;2.47;;
16624;SDS011;8426;48.496;9.098;2023-05-07T05:11:58;4.32;;;2.83;;
16624;SDS011;8426;48.496;9.098;2023-05-07T05:17:02;6.80;;;2.67;;
16624;SDS011;8426;48.496;9.098;2023-05-07T05:22:06;4.35;;;2.65;;
16624;SDS011;8426;48.496;9.098;2023-05-07T05:27:11;5.53;;;2.67;;
16624;SDS011;8426;48.496;9.098;2023-05-07T05:32:14;6.25;;;2.78;;
16624;SDS011;8426;48.496;9.098;2023-05-07T05:37:23;4.82;;;2.53;;
16624;SDS011;8426;48.496;9.098;2023-05-07T05:42:29;3.45;;;2.05;;
16624;SDS011;8426;48.496;9.098;2023-05-07T05:47:32;6.55;;;2.13;;
16624;SDS011;8426;48.496;9.098;2023-05-07T05:52:36;3.58;;;2.40;;
16624;SDS011;8426;48.496;9.098;2023-05-07T05:57:41;6.88;;;2.03;;
16624;SDS011;8426;48.496;9.098;2023-05-07T06:02:45;5.72;;;1.65;;
16624;SDS011;8426;48.496;9.098;2023-05-07T06:07:49;1.73;;;1.40;;
16624;SDS011;8426;48.496;9.098;2023-05-07T06:12:56;6.30;;;1.30;;
16624;SDS011;8426;48.496;9.098;2023-05-07T06:18:00;2.95;;;1.52;;
16624;SDS011;8426;48.496;9.098;2023-05-07T06:23:03;4.05;;;1.70;;
16624;SDS011;8426;48.496;9.098;2023-05-07T06:28:08;2.47;;;1.63;;
16624;SDS011;8426;48.496;9.098;2023-05-07T06:33:13;7.47;;;2.05;;
16624;SDS011;8426;48.496;9.098;2023-05-07T06:38:17;3.13;;;2.30;;
16624;SDS011;8426;48.496;9.098;2023-05-07T06:43:22;5.85;;;2.03;;
16624;SDS011;8426;48.496;9.098;2023-05-07T06:48:25;4.55;;;2.45;;
16624;SDS011;8426;48.496;9.098;2023-05-07T06:53:30;2.38;;;2.17;;
16624;SDS011;8426;48.496;9.098;2023-05-07T06:58:35;2.20;;;1.80;;
16624;SDS011;8426;48.496;9.098;2023-05-07T07:03:39;3.30;;;2.28;;
16624;SDS011;8426;48.496;9.098;2023-05-07T07:08:43;5.75;;;2.20;;
16624;SDS011;8426;48.496;9.098;2023-05-07T07:13:47;3.03;;;1.70;;
16624;SDS011;8426;48.496;9.098;2023-05-07T07:18:52;2.65;;;1.73;;
16624;SDS011;8426;48.496;9.098;2023-05-07T07:23:55;4.43;;;1.92;;
16624;SDS011;8426;48.496;9.098;2023-05-07T07:29:00;3.03;;;1.52;;
16624;SDS011;8426;48.496;9.098;2023-05-07T07:34:04;1.80;;;1.50;;
16624;SDS011;8426;48.496;9.098;2023-05-07T07:39:07;2.88;;;1.50;;
16624;SDS011;8426;48.496;9.098;2023-05-07T07:44:12;2.90;;;1.77;;
16624;SDS011;8426;48.496;9.098;2023-05-07T07:49:17;7.28;;;1.90;;
16624;SDS011;8426;48.496;9.098;2023-05-07T07:54:20;2.40;;;1.90;;
16624;SDS011;8426;48.496;9.098;2023-05-07T07:59:26;2.42;;;1.75;;
16624;SDS011;8426;48.496;9.098;2023-05-07T08:04:31;6.68;;;1.98;;
16624;SDS011;8426;48.496;9.098;2023-05-07T08:09:41;2.90;;;1.80;;
16624;SDS011;8426;48.496;9.098;2023-05-07T08:14:46;3.85;;;1.95;;
16624;SDS011;8426;48.496;9.098;2023-05-07T08:19:55;3.22;;;1.80;;
16624;SDS011;8426;48.496;9.098;2023-05-07T08:25:02;3.40;;;1.65;;
16624;SDS011;8426;48.496;9.098;2023-05-07T08:30:18;6.03;;;1.67;;
16624;SDS011;8426;48.496;9.098;2023-05-07T08:35:25;5.88;;;1.60;;
16624;SDS011;8426;48.496;9.098;2023-05-07T08:40:40;6.82;;;2.00;;
16624;SDS011;8426;48.496;9.098;2023-05-07T08:45:46;5.40;;;2.10;;
16624;SDS011;8426;48.496;9.098;2023-05-07T08:50:55;3.92;;;2.10;;
16624;SDS011;8426;48.496;9.098;2023-05-07T08:56:02;4.30;;;1.88;;
16624;SDS011;8426;48.496;9.098;2023-05-07T09:01:13;2.25;;;1.60;;
16624;SDS011;8426;48.496;9.098;2023-05-07T09:06:24;4.53;;;1.85;;
16624;SDS011;8426;48.496;9.098;2023-05-07T09:11:30;2.72;;;1.70;;
16624;SDS011;8426;48.496;9.098;2023-05-07T09:16:48;3.15;;;1.70;;
16624;SDS011;8426;48.496;9.098;2023-05-07T09:21:58;6.25;;;1.88;;
16624;SDS011;8426;48.496;9.098;2023-05-07T09:27:06;4.80;;;2.30;;
16624;SDS011;8426;48.496;9.098;2023-05-07T09:32:21;2.97;;;2.08;;
16624;SDS011;8426;48.496;9.098;2023-05-07T09:37:35;3.28;;;1.98;;
16624;SDS011;8426;48.496;9.098;2023-05-07T09:42:42;3.08;;;1.80;;
16624;SDS011;8426;48.496;9.098;2023-05-07T09:47:58;5.57;;;1.90;;
16624;SDS011;8426;48.496;9.098;2023-05-07T09:53:08;2.35;;;1.98;;
16624;SDS011;8426;48.496;9.098;2023-05-07T09:58:19;5.53;;;1.60;;
16624;SDS011;8426;48.496;9.098;2023-05-07T10:03:26;3.03;;;2.13;;
16624;SDS011;8426;48.496;9.098;2023-05-07T10:08:35;3.53;;;2.00;;
16624;SDS011;8426;48.496;9.098;2023-05-07T10:13:39;3.90;;;2.10;;
16624;SDS011;8426;48.496;9.098;2023-05-07T10:18:45;5.22;;;2.00;;
16624;SDS011;8426;48.496;9.098;2023-05-07T10:23:50;2.42;;;1.92;;
16624;SDS011;8426;48.496;9.098;2023-05-07T10:29:02;4.45;;;1.60;;
16624;SDS011;8426;48.496;9.098;2023-05-07T10:34:14;5.78;;;2.10;;
16624;SDS011;8426;48.496;9.098;2023-05-07T10:39:26;8.82;;;1.95;;
16624;SDS011;8426;48.496;9.098;2023-05-07T10:44:30;2.10;;;1.80;;
16624;SDS011;8426;48.496;9.098;2023-05-07T10:49:34;3.17;;;1.60;;
16624;SDS011;8426;48.496;9.098;2023-05-07T10:54:38;3.47;;;1.80;;
16624;SDS011;8426;48.496;9.098;2023-05-07T10:59:42;5.30;;;1.55;;
16624;SDS011;8426;48.496;9.098;2023-05-07T11:04:46;4.47;;;1.73;;
16624;SDS011;8426;48.496;9.098;2023-05-07T11:15:53;1.95;;;1.50;;
16624;SDS011;8426;48.496;9.098;2023-05-07T11:20:58;2.58;;;1.40;;
16624;SDS011;8426;48.496;9.098;2023-05-07T11:26:03;3.95;;;1.75;;
16624;SDS011;8426;48.496;9.098;2023-05-07T11:31:08;2.90;;;1.70;;
16624;SDS011;8426;48.496;9.098;2023-05-07T11:36:15;3.33;;;1.60;;
16624;SDS011;8426;48.496;9.098;2023-05-07T11:41:20;6.25;;;1.92;;
16624;SDS011;8426;48.496;9.098;2023-05-07T11:46:24;3.72;;;1.90;;
16624;SDS011;8426;48.496;9.098;2023-05-07T11:51:30;4.05;;;1.83;;
16624;SDS011;8426;48.496;9.098;2023-05-07T11:56:33;3.35;;;1.70;;
16624;SDS011;8426;48.496;9.098;2023-05-07T12:01:37;3.03;;;1.65;;
16624;SDS011;8426;48.496;9.098;2023-05-07T12:06:42;3.88;;;1.40;;
16624;SDS011;8426;48.496;9.098;2023-05-07T12:11:46;3.00;;;1.60;;
16624;SDS011;8426;48.496;9.098;2023-05-07T12:16:50;4.35;;;1.45;;
16624;SDS011;8426;48.496;9.098;2023-05-07T12:21:56;3.05;;;1.20;;
16624;SDS011;8426;48.496;9.098;2023-05-07T12:27:00;2.13;;;1.20;;
16624;SDS011;8426;48.496;9.098;2023-05-07T12:32:06;2.15;;;1.30;;
16624;SDS011;8426;48.496;9.098;2023-05-07T12:37:24;3.08;;;1.30;;
16624;SDS011;8426;48.496;9.098;2023-05-07T12:42:35;2.63;;;1.00;;
16624;SDS011;8426;48.496;9.098;2023-05-07T12:47:43;2.78;;;1.20;;
16624;SDS011;8426;48.496;9.098;2023-05-07T12:52:50;4.07;;;1.05;;
16624;SDS011;8426;48.496;9.098;2023-05-07T12:57:55;4.07;;;1.13;;
16624;SDS011;8426;48.496;9.098;2023-05-07T13:02:59;2.17;;;1.10;;
16624;SDS011;8426;48.496;9.098;2023-05-07T13:08:07;8.73;;;1.50;;
16624;SDS011;8426;48.496;9.098;2023-05-07T13:13:32;4.63;;;1.60;;
16624;SDS011;8426;48.496;9.098;2023-05-07T13:18:44;8.48;;;1.88;;
16624;SDS011;8426;48.496;9.098;2023-05-07T13:23:57;5.63;;;2.00;;
16624;SDS011;8426;48.496;9.098;2023-05-07T13:29:04;4.82;;;2.25;;
16624;SDS011;8426;48.496;9.098;2023-05-07T13:34:08;2.97;;;1.80;;
16624;SDS011;8426;48.496;9.098;2023-05-07T13:39:13;4.90;;;1.88;;
16624;SDS011;8426;48.496;9.098;2023-05-07T13:44:24;6.05;;;2.47;;
16624;SDS011;8426;48.496;9.098;2023-05-07T13:49:45;7.38;;;2.10;;
16624;SDS011;8426;48.496;9.098;2023-05-07T13:55:02;6.88;;;1.65;;
16624;SDS011;8426;48.496;9.098;2023-05-07T14:00:08;3.80;;;1.67;;
16624;SDS011;8426;48.496;9.098;2023-05-07T14:05:14;2.70;;;1.50;;
16624;SDS011;8426;48.496;9.098;2023-05-07T14:10:23;4.10;;;1.40;;
16624;SDS011;8426;48.496;9.098;2023-05-07T14:15:32;4.88;;;2.08;;
16624;SDS011;8426;48.496;9.098;2023-05-07T14:20:35;2.67;;;1.90;;
16624;SDS011;8426;48.496;9.098;2023-05-07T14:25:40;6.68;;;2.15;;
16624;SDS011;8426;48.496;9.098;2023-05-07T14:30:46;11.60;;;2.70;;
16624;SDS011;8426;48.496;9.098;2023-05-07T14:35:50;6.28;;;2.33;;
16624;SDS011;8426;48.496;9.098;2023-05-07T14:40:56;5.45;;;2.45;;
16624;SDS011;8426;48.496;9.098;2023-05-07T14:46:01;7.65;;;3.13;;
16624;SDS011;8426;48.496;9.098;2023-05-07T14:51:14;3.83;;;2.00;;
16624;SDS011;8426;48.496;9.098;2023-05-07T14:56:32;6.90;;;2.03;;
16624;SDS011;8426;48.496;9.098;2023-05-07T15:01:39;10.15;;;2.22;;
16624;SDS011;8426;48.496;9.098;2023-05-07T15:06:49;2.83;;;1.45;;
16624;SDS011;8426;48.496;9.098;2023-05-07T15:11:56;6.70;;;1.85;;
16624;SDS011;8426;48.496;9.098;2023-05-07T15:17:05;8.25;;;1.95;;
16624;SDS011;8426;48.496;9.098;2023-05-07T15:22:09;3.05;;;1.65;;
16624;SDS011;8426;48.496;9.098;2023-05-07T15:27:15;10.00;;;1.42;;
16624;SDS011;8426;48.496;9.098;2023-05-07T15:32:21;3.28;;;1.88;;
16624;SDS011;8426;48.496;9.098;2023-05-07T15:37:28;4.20;;;1.92;;
16624;SDS011;8426;48.496;9.098;2023-05-07T15:42:38;3.15;;;1.83;;
16624;SDS011;8426;48.496;9.098;2023-05-07T15:47:42;4.22;;;2.30;;
16624;SDS011;8426;48.496;9.098;2023-05-07T15:52:52;4.13;;;1.83;;
16624;SDS011;8426;48.496;9.098;2023-05-07T15:58:02;2.65;;;1.42;;
16624;SDS011;8426;48.496;9.098;2023-05-07T16:03:07;5.50;;;1.45;;
16624;SDS011;8426;48.496;9.098;2023-05-07T16:08:12;2.65;;;1.48;;
16624;SDS011;8426;48.496;9.098;2023-05-07T16:13:19;5.32;;;1.70;;
16624;SDS011;8426;48.496;9.098;2023-05-07T16:18:22;2.90;;;1.40;;
16624;SDS011;8426;48.496;9.098;2023-05-07T16:23:27;2.65;;;1.58;;
16624;SDS011;8426;48.496;9.098;2023-05-07T16:28:32;5.60;;;1.50;;
16624;SDS011;8426;48.496;9.098;2023-05-07T16:33:37;6.05;;;1.83;;
16624;SDS011;8426;48.496;9.098;2023-05-07T16:38:42;2.92;;;1.48;;
16624;SDS011;8426;48.496;9.098;2023-05-07T16:44:00;4.03;;;1.45;;
16624;SDS011;8426;48.496;9.098;2023-05-07T16:49:05;2.10;;;1.50;;
16624;SDS011;8426;48.496;9.098;2023-05-07T16:54:10;4.03;;;1.67;;
16624;SDS011;8426;48.496;9.098;2023-05-07T16:59:17;3.65;;;1.65;;
16624;SDS011;8426;48.496;9.098;2023-05-07T17:04:21;2.50;;;1.45;;
16624;SDS011;8426;48.496;9.098;2023-05-07T17:09:29;1.98;;;1.42;;
16624;SDS011;8426;48.496;9.098;2023-05-07T17:14:36;1.90;;;1.35;;
16624;SDS011;8426;48.496;9.098;2023-05-07T17:19:41;2.72;;;1.63;;
16624;SDS011;8426;48.496;9.098;2023-05-07T17:24:52;2.33;;;1.48;;
16624;SDS011;8426;48.496;9.098;2023-05-07T17:29:57;3.22;;;1.60;;
16624;SDS011;8426;48.496;9.098;2023-05-07T17:35:00;1.70;;;1.48;;
16624;SDS011;8426;48.496;9.098;2023-05-07T17:40:05;3.58;;;1.75;;
16624;SDS011;8426;48.496;9.098;2023-05-07T17:45:11;2.50;;;1.63;;
16624;SDS011;8426;48.496;9.098;2023-05-07T17:50:16;2.30;;;1.77;;
16624;SDS011;8426;48.496;9.098;2023-05-07T17:55:23;5.20;;;2.40;;
16624;SDS011;8426;48.496;9.098;2023-05-07T18:00:28;4.82;;;2.20;;
16624;SDS011;8426;48.496;9.098;2023-05-07T18:05:34;3.65;;;2.60;;
16624;SDS011;8426;48.496;9.098;2023-05-07T18:10:41;4.40;;;2.40;;
16624;SDS011;8426;48.496;9.098;2023-05-07T18:15:52;5.82;;;2.55;;
16624;SDS011;8426;48.496;9.098;2023-05-07T18:20:55;3.95;;;2.05;;
16624;SDS011;8426;48.496;9.098;2023-05-07T18:26:00;3.22;;;2.42;;
16624;SDS011;8426;48.496;9.098;2023-05-07T18:31:10;6.00;;;2.60;;
16624;SDS011;8426;48.496;9.098;2023-05-07T18:36:14;4.80;;;2.20;;
16624;SDS011;8426;48.496;9.098;2023-05-07T18:41:19;7.60;;;3.17;;
16624;SDS011;8426;48.496;9.098;2023-05-07T18:46:25;7.68;;;3.63;;
16624;SDS011;8426;48.496;9.098;2023-05-07T18:51:31;11.52;;;5.03;;
16624;SDS011;8426;48.496;9.098;2023-05-07T18:56:34;6.38;;;2.90;;
16624;SDS011;8426;48.496;9.098;2023-05-07T19:01:40;3.88;;;2.63;;
16624;SDS011;8426;48.496;9.098;2023-05-07T19:06:47;4.97;;;2.22;;
16624;SDS011;8426;48.496;9.098;2023-05-07T19:11:54;3.08;;;1.90;;
16624;SDS011;8426;48.496;9.098;2023-05-07T19:16:59;3.00;;;2.00;;
16624;SDS011;8426;48.496;9.098;2023-05-07T19:22:04;7.68;;;2.35;;
16624;SDS011;8426;48.496;9.098;2023-05-07T19:27:09;2.92;;;2.10;;
16624;SDS011;8426;48.496;9.098;2023-05-07T19:32:16;4.93;;;2.45;;
16624;SDS011;8426;48.496;9.098;2023-05-07T19:37:22;2.70;;;2.22;;
16624;SDS011;8426;48.496;9.098;2023-05-07T19:42:28;7.93;;;2.85;;
16624;SDS011;8426;48.496;9.098;2023-05-07T19:47:38;3.40;;;2.00;;
16624;SDS011;8426;48.496;9.098;2023-05-07T19:52:43;3.15;;;2.03;;
16624;SDS011;8426;48.496;9.098;2023-05-07T19:57:47;3.20;;;2.30;;
16624;SDS011;8426;48.496;9.098;2023-05-07T20:02:52;2.65;;;2.30;;
16624;SDS011;8426;48.496;9.098;2023-05-07T20:07:56;3.05;;;1.90;;
16624;SDS011;8426;48.496;9.098;2023-05-07T20:13:00;4.55;;;2.38;;
16624;SDS011;8426;48.496;9.098;2023-05-07T20:18:05;3.33;;;1.92;;
16624;SDS011;8426;48.496;9.098;2023-05-07T20:23:11;5.20;;;2.60;;
16624;SDS011;8426;48.496;9.098;2023-05-07T20:28:15;3.60;;;2.50;;
16624;SDS011;8426;48.496;9.098;2023-05-07T20:33:20;2.55;;;2.10;;
16624;SDS011;8426;48.496;9.098;2023-05-07T20:38:23;5.25;;;2.10;;
16624;SDS011;8426;48.496;9.098;2023-05-07T20:43:28;5.40;;;2.55;;
16624;SDS011;8426;48.496;9.098;2023-05-07T20:48:35;3.00;;;2.17;;
16624;SDS011;8426;48.496;9.098;2023-05-07T20:53:39;3.70;;;2.53;;
16624;SDS011;8426;48.496;9.098;2023-05-07T20:58:47;3.40;;;2.30;;
16624;SDS011;8426;48.496;9.098;2023-05-07T21:03:52;6.47;;;2.65;;
16624;SDS011;8426;48.496;9.098;2023-05-07T21:08:56;3.28;;;2.60;;
16624;SDS011;8426;48.496;9.098;2023-05-07T21:14:00;5.50;;;3.35;;
16624;SDS011;8426;48.496;9.098;2023-05-07T21:19:06;6.28;;;3.60;;
16624;SDS011;8426;48.496;9.098;2023-05-07T21:24:09;3.72;;;2.63;;
16624;SDS011;8426;48.496;9.098;2023-05-07T21:29:12;5.38;;;3.90;;
16624;SDS011;8426;48.496;9.098;2023-05-07T21:34:17;5.47;;;3.58;;
16624;SDS011;8426;48.496;9.098;2023-05-07T21:39:20;6.03;;;4.10;;
16624;SDS011;8426;48.496;9.098;2023-05-07T21:44:27;10.57;;;5.22;;
16624;SDS011;8426;48.496;9.098;2023-05-07T21:49:31;7.38;;;4.60;;
16624;SDS011;8426;48.496;9.098;2023-05-07T21:54:35;7.22;;;4.78;;
16624;SDS011;8426;48.496;9.098;2023-05-07T21:59:39;8.80;;;5.43;;
16624;SDS011;8426;48.496;9.098;2023-05-07T22:04:43;10.90;;;6.50;;
16624;SDS011;8426;48.496;9.098;2023-05-07T22:09:47;12.23;;;6.90;;
16624;SDS011;8426;48.496;9.098;2023-05-07T22:14:51;18.63;;;7.15;;
16624;SDS011;8426;48.496;9.098;2023-05-07T22:19:55;9.65;;;6.07;;
16624;SDS011;8426;48.496;9.098;2023-05-07T22:25:02;8.77;;;5.60;;
16624;SDS011;8426;48.496;9.098;2023-05-07T22:30:07;8.55;;;6.05;;
16624;SDS011;8426;48.496;9.098;2023-05-07T22:35:13;10.45;;;6.60;;
16624;SDS011;8426;48.496;9.098;2023-05-07T22:40:21;9.65;;;6.47;;
16624;SDS011;8426;48.496;9.098;2023-05-07T22:45:24;11.32;;;6.88;;
16624;SDS011;8426;48.496;9.098;2023-05-07T22:50:29;10.75;;;5.95;;
16624;SDS011;8426;48.496;9.098;2023-05-07T22:55:33;10.82;;;6.57;;
16624;SDS011;8426;48.496;9.098;2023-05-07T23:00:41;8.70;;;5.55;;
16624;SDS011;8426;48.496;9.098;2023-05-07T23:05:46;11.38;;;7.07;;
16624;SDS011;8426;48.496;9.098;2023-05-07T23:10:49;9.45;;;5.55;;
16624;SDS011;8426;48.496;9.098;2023-05-07T23:15:52;8.07;;;5.88;;
16624;SDS011;8426;48.496;9.098;2023-05-07T23:20:57;9.90;;;6.43;;
16624;SDS011;8426;48.496;9.098;2023-05-07T23:26:01;10.30;;;6.40;;
16624;SDS011;8426;48.496;9.098;2023-05-07T23:31:05;11.80;;;7.80;;
16624;SDS011;8426;48.496;9.098;2023-05-07T23:36:10;12.32;;;8.45;;
16624;SDS011;8426;48.496;9.098;2023-05-07T23:41:14;12.88;;;7.85;;
16624;SDS011;8426;48.496;9.098;2023-05-07T23:46:17;13.80;;;7.25;;
16624;SDS011;8426;48.496;9.098;2023-05-07T23:51:23;11.50;;;7.28;;
16624;SDS011;8426;48.496;9.098;2023-05-07T23:56:26;10.77;;;7.05;;
